createdAt,value
2019-03-19T00:00:16.916Z,5.17
2019-03-19T00:02:46.196Z,7.28
2019-03-19T00:05:14.882Z,6.37
2019-03-19T00:07:43.919Z,6.50
2019-03-19T00:10:13.441Z,7.95
2019-03-19T00:12:42.243Z,7.85
2019-03-19T00:15:12.004Z,7.35
2019-03-19T00:17:40.928Z,8.28
2019-03-19T00:20:12.848Z,8.28
2019-03-19T00:22:41.891Z,6.42
2019-03-19T00:25:11.530Z,8.18
2019-03-19T00:27:40.693Z,8.08
2019-03-19T00:30:17.174Z,8.68
2019-03-19T00:32:46.585Z,7.33
2019-03-19T00:35:15.617Z,7.33
2019-03-19T00:37:44.901Z,8.05
2019-03-19T00:40:15.025Z,8.35
2019-03-19T00:42:43.945Z,8.45
2019-03-19T00:45:14.445Z,6.60
2019-03-19T00:47:43.707Z,6.53
2019-03-19T00:50:13.582Z,7.40
2019-03-19T00:52:42.515Z,6.33
2019-03-19T00:55:11.912Z,7.10
2019-03-19T00:57:40.835Z,7.15
2019-03-19T01:00:12.632Z,7.12
2019-03-19T01:02:41.565Z,6.75
2019-03-19T01:05:10.719Z,7.83
2019-03-19T01:07:39.639Z,6.28
2019-03-19T01:10:13.719Z,6.67
2019-03-19T01:12:42.638Z,8.03
2019-03-19T01:15:12.886Z,8.95
2019-03-19T01:17:41.806Z,8.28
2019-03-19T01:20:13.258Z,8.80
2019-03-19T01:22:42.292Z,8.13
2019-03-19T01:25:11.806Z,7.65
2019-03-19T01:27:41.098Z,8.45
2019-03-19T01:30:13.129Z,6.20
2019-03-19T01:32:42.054Z,8.13
2019-03-19T01:35:10.881Z,9.80
2019-03-19T01:37:40.026Z,9.00
2019-03-19T01:40:10.975Z,9.23
2019-03-19T01:42:39.903Z,9.15
2019-03-19T01:45:10.625Z,8.45
2019-03-19T01:47:39.659Z,9.53
2019-03-19T01:50:16.032Z,7.78
2019-03-19T01:52:45.302Z,9.08
2019-03-19T01:55:14.950Z,7.47
2019-03-19T01:57:44.226Z,8.63
2019-03-19T02:00:15.429Z,9.23
2019-03-19T02:02:44.594Z,7.55
2019-03-19T02:05:13.632Z,8.25
2019-03-19T02:07:42.677Z,10.25
2019-03-19T02:10:13.755Z,7.22
2019-03-19T02:12:43.111Z,7.17
2019-03-19T02:15:14.246Z,7.78
2019-03-19T02:17:43.402Z,8.10
2019-03-19T02:20:14.240Z,7.92
2019-03-19T02:22:43.402Z,7.50
2019-03-19T02:25:12.447Z,8.53
2019-03-19T02:27:41.492Z,8.80
2019-03-19T02:30:14.880Z,8.93
2019-03-19T02:32:44.055Z,8.60
2019-03-19T02:35:13.179Z,9.00
2019-03-19T02:37:42.578Z,9.88
2019-03-19T03:10:38.023Z,9.88
2019-03-19T03:13:06.837Z,9.70
2019-03-19T03:15:35.389Z,10.80
2019-03-19T03:18:04.515Z,9.73
2019-03-19T03:20:33.193Z,10.63
2019-03-19T03:23:01.771Z,9.50
2019-03-19T03:25:30.512Z,9.13
2019-03-19T03:27:59.288Z,11.25
2019-03-19T03:30:27.915Z,12.18
2019-03-19T03:32:56.582Z,12.25
2019-03-19T03:35:25.201Z,11.70
2019-03-19T03:37:53.788Z,10.78
2019-03-19T03:40:22.358Z,10.58
2019-03-19T03:42:51.043Z,10.75
2019-03-19T03:45:20.757Z,10.08
2019-03-19T03:47:49.475Z,10.63
2019-03-19T03:50:18.699Z,11.68
2019-03-19T03:52:47.394Z,12.37
2019-03-19T03:55:17.009Z,11.40
2019-03-19T03:57:45.723Z,11.63
2019-03-19T04:00:26.236Z,11.95
2019-03-19T04:02:54.884Z,11.90
2019-03-19T04:05:23.694Z,12.80
2019-03-19T04:07:52.312Z,12.28
2019-03-19T04:10:20.962Z,14.05
2019-03-19T04:12:49.741Z,11.00
2019-03-19T04:15:19.067Z,11.25
2019-03-19T04:17:47.706Z,10.78
2019-03-19T04:20:17.474Z,12.37
2019-03-19T04:22:46.186Z,11.35
2019-03-19T04:25:15.397Z,12.37
2019-03-19T04:27:44.053Z,11.75
2019-03-19T04:30:20.375Z,11.38
2019-03-19T04:32:49.023Z,12.78
2019-03-19T04:35:17.743Z,13.70
2019-03-19T04:37:46.300Z,11.03
2019-03-19T04:40:16.011Z,13.03
2019-03-19T04:42:45.223Z,13.15
2019-03-19T04:45:17.678Z,12.45
2019-03-19T04:47:46.475Z,15.58
2019-03-19T04:50:16.010Z,12.78
2019-03-19T04:52:44.755Z,11.55
2019-03-19T04:55:19.224Z,13.08
2019-03-19T04:57:47.823Z,12.35
2019-03-19T05:00:17.340Z,13.55
2019-03-19T05:02:46.020Z,14.25
2019-03-19T05:05:14.735Z,13.25
2019-03-19T05:07:43.373Z,11.18
2019-03-19T05:10:14.166Z,11.88
2019-03-19T05:12:42.899Z,14.80
2019-03-19T05:15:11.796Z,13.05
2019-03-19T05:17:40.710Z,13.00
2019-03-19T05:20:14.359Z,12.15
2019-03-19T05:22:43.123Z,14.23
2019-03-19T05:25:12.133Z,13.50
2019-03-19T05:27:40.868Z,13.70
2019-03-19T05:30:14.439Z,13.00
2019-03-19T05:32:43.135Z,13.72
2019-03-19T05:35:11.717Z,15.23
2019-03-19T05:37:40.359Z,14.83
2019-03-19T05:40:13.963Z,17.40
2019-03-19T05:42:42.819Z,16.02
2019-03-19T05:45:12.722Z,13.43
2019-03-19T05:47:41.448Z,14.70
2019-03-19T05:50:15.750Z,15.08
2019-03-19T05:52:44.478Z,15.18
2019-03-19T05:55:13.191Z,15.83
2019-03-19T05:57:49.613Z,15.75
2019-03-19T06:00:20.439Z,15.05
2019-03-19T06:02:49.089Z,15.72
2019-03-19T06:05:17.965Z,17.25
2019-03-19T06:07:46.602Z,15.70
2019-03-19T06:10:15.587Z,14.45
2019-03-19T06:12:44.206Z,16.40
2019-03-19T06:15:14.325Z,19.02
2019-03-19T06:17:43.054Z,31.52
2019-03-19T06:20:19.539Z,19.42
2019-03-19T06:22:48.257Z,25.95
2019-03-19T06:25:17.257Z,18.32
2019-03-19T06:27:45.960Z,17.37
2019-03-19T06:30:19.495Z,18.20
2019-03-19T06:32:48.129Z,17.95
2019-03-19T06:35:17.457Z,18.67
2019-03-19T06:37:46.164Z,15.75
2019-03-19T06:40:15.956Z,16.45
2019-03-19T06:42:44.615Z,16.40
2019-03-19T06:45:14.723Z,14.53
2019-03-19T06:47:43.625Z,15.03
2019-03-19T06:50:15.995Z,14.65
2019-03-19T06:52:44.826Z,13.30
2019-03-19T06:55:14.660Z,15.45
2019-03-19T06:57:43.353Z,15.78
2019-03-19T07:00:17.733Z,15.20
2019-03-19T07:02:46.357Z,15.78
2019-03-19T07:05:16.518Z,15.28
2019-03-19T07:07:45.180Z,16.93
2019-03-19T07:10:15.114Z,15.83
2019-03-19T07:12:43.710Z,16.50
2019-03-19T07:15:17.164Z,17.02
2019-03-19T07:17:45.853Z,17.45
2019-03-19T07:20:22.991Z,18.87
2019-03-19T07:22:51.740Z,18.17
2019-03-19T07:25:20.379Z,18.05
2019-03-19T07:27:48.959Z,20.10
2019-03-19T07:30:27.425Z,18.77
2019-03-19T07:32:56.127Z,16.37
2019-03-19T07:35:24.772Z,19.98
2019-03-19T07:37:53.412Z,20.23
2019-03-19T07:40:22.261Z,23.02
2019-03-19T07:42:50.920Z,19.92
2019-03-19T07:45:21.905Z,21.95
2019-03-19T07:47:51.311Z,21.65
2019-03-19T07:50:22.995Z,23.00
2019-03-19T07:55:19.497Z,22.80
2019-03-19T07:57:48.112Z,19.17
2019-03-19T08:00:21.293Z,18.05
2019-03-19T08:02:50.106Z,17.40
2019-03-19T08:05:18.797Z,16.50
2019-03-19T08:07:47.537Z,15.15
2019-03-19T08:10:20.039Z,15.20
2019-03-19T08:12:48.736Z,15.63
2019-03-19T08:15:21.129Z,15.32
2019-03-19T08:17:49.887Z,16.07
2019-03-19T08:20:18.880Z,15.05
2019-03-19T08:22:47.596Z,13.72
2019-03-19T08:25:17.019Z,13.75
2019-03-19T08:27:45.742Z,15.03
2019-03-19T08:30:24.521Z,13.48
2019-03-19T08:32:52.825Z,12.45
2019-03-19T08:35:21.456Z,12.88
2019-03-19T08:37:50.296Z,12.93
2019-03-19T08:40:19.455Z,12.73
2019-03-19T08:42:48.175Z,13.25
2019-03-19T08:45:22.477Z,11.97
2019-03-19T08:47:51.118Z,11.48
2019-03-19T08:50:23.960Z,12.37
2019-03-19T08:52:54.991Z,14.85
2019-03-19T08:55:22.941Z,16.35
2019-03-19T08:57:51.589Z,14.80
2019-03-19T09:00:21.461Z,13.40
2019-03-19T09:02:50.061Z,12.70
2019-03-19T09:05:18.590Z,11.75
2019-03-19T09:07:47.162Z,12.90
2019-03-19T09:10:17.766Z,13.18
2019-03-19T09:12:48.528Z,13.20
2019-03-19T09:15:22.513Z,12.88
2019-03-19T09:17:51.177Z,10.43
2019-03-19T09:20:19.808Z,11.63
2019-03-19T09:22:48.570Z,13.65
2019-03-19T09:25:17.205Z,13.20
2019-03-19T09:27:45.979Z,12.07
2019-03-19T09:30:21.954Z,11.70
2019-03-19T09:32:50.474Z,11.75
2019-03-19T09:35:19.189Z,11.22
2019-03-19T09:37:57.856Z,9.38
2019-03-19T09:40:19.340Z,7.08
2019-03-19T09:42:48.061Z,6.62
2019-03-19T09:45:17.894Z,5.92
2019-03-19T09:47:47.296Z,4.80
2019-03-19T09:50:18.393Z,4.35
2019-03-19T09:52:47.105Z,3.42
2019-03-19T09:55:16.025Z,3.35
2019-03-19T09:57:44.703Z,4.15
2019-03-19T10:00:18.179Z,3.85
2019-03-19T10:02:47.098Z,3.70
2019-03-19T10:05:16.215Z,4.40
2019-03-19T10:07:44.868Z,4.72
2019-03-19T10:10:18.933Z,5.12
2019-03-19T10:12:47.842Z,4.85
2019-03-19T10:15:16.863Z,4.80
2019-03-19T10:17:45.640Z,4.33
2019-03-19T10:20:19.661Z,4.35
2019-03-19T10:22:48.320Z,4.67
2019-03-19T10:25:17.477Z,4.75
2019-03-19T10:27:46.143Z,5.75
2019-03-19T10:30:17.140Z,5.08
2019-03-19T10:32:46.149Z,6.25
2019-03-19T10:35:14.819Z,5.05
2019-03-19T10:37:43.574Z,5.20
2019-03-19T10:40:14.457Z,4.97
2019-03-19T10:42:43.120Z,4.83
2019-03-19T10:45:19.999Z,5.25
2019-03-19T10:47:48.770Z,5.22
2019-03-19T10:50:28.253Z,5.37
2019-03-19T10:52:56.900Z,5.90
2019-03-19T10:55:25.637Z,5.25
2019-03-19T10:57:54.344Z,4.62
2019-03-19T11:00:25.131Z,5.50
2019-03-19T11:02:54.337Z,5.12
2019-03-19T11:05:24.107Z,4.85
2019-03-19T11:07:52.940Z,5.22
2019-03-19T11:10:22.006Z,4.75
2019-03-19T11:12:50.825Z,8.58
2019-03-19T11:15:23.620Z,10.58
2019-03-19T11:17:52.322Z,6.67
2019-03-19T11:20:21.225Z,5.20
2019-03-19T11:22:49.980Z,4.20
2019-03-19T11:25:22.169Z,3.52
2019-03-19T11:27:50.802Z,3.70
2019-03-19T11:30:24.264Z,4.17
2019-03-19T11:32:52.900Z,3.98
2019-03-19T11:35:21.858Z,4.08
2019-03-19T11:37:50.500Z,3.85
2019-03-19T11:40:20.492Z,3.55
2019-03-19T11:42:49.707Z,3.80
2019-03-19T11:45:20.067Z,3.30
2019-03-19T11:47:48.797Z,3.80
2019-03-19T11:50:24.303Z,3.42
2019-03-19T11:52:53.248Z,3.20
2019-03-19T11:55:22.055Z,3.15
2019-03-19T11:57:51.056Z,3.40
2019-03-19T12:00:26.576Z,4.05
2019-03-19T12:02:55.460Z,3.62
2019-03-19T12:05:24.165Z,3.37
2019-03-19T12:07:52.825Z,3.22
2019-03-19T12:10:21.498Z,3.70
2019-03-19T12:12:50.119Z,3.72
2019-03-19T12:15:18.638Z,3.62
2019-03-19T12:17:48.841Z,3.08
2019-03-19T12:20:17.564Z,3.42
2019-03-19T12:22:46.184Z,3.30
2019-03-19T12:25:14.770Z,3.10
2019-03-19T12:27:43.668Z,3.40
2019-03-19T12:30:22.124Z,2.95
2019-03-19T12:32:45.791Z,3.00
2019-03-19T12:35:14.813Z,3.02
2019-03-19T12:37:43.407Z,3.00
2019-03-19T12:40:15.936Z,3.75
2019-03-19T12:42:44.510Z,3.30
2019-03-19T12:45:15.799Z,4.15
2019-03-19T12:50:17.657Z,3.37
2019-03-19T12:52:46.215Z,3.45
2019-03-19T12:55:15.360Z,3.50
2019-03-19T12:57:43.991Z,3.15
2019-03-19T13:00:33.282Z,2.98
2019-03-19T13:02:53.484Z,2.45
2019-03-19T13:05:22.640Z,2.60
2019-03-19T13:07:51.345Z,2.40
2019-03-19T13:10:23.892Z,2.47
2019-03-19T13:12:52.473Z,2.62
2019-03-19T13:15:21.469Z,2.58
2019-03-19T13:17:50.375Z,2.47
2019-03-19T13:20:22.880Z,3.80
2019-03-19T13:22:51.504Z,2.75
2019-03-19T13:25:22.070Z,2.65
2019-03-19T13:27:50.929Z,3.02
2019-03-19T13:30:30.132Z,3.55
2019-03-19T13:32:58.793Z,2.98
2019-03-19T13:35:27.490Z,2.70
2019-03-19T13:37:56.050Z,2.90
2019-03-19T13:40:24.698Z,2.77
2019-03-19T13:42:53.399Z,3.27
2019-03-19T13:45:25.212Z,3.22
2019-03-19T13:47:53.791Z,2.80
2019-03-19T13:50:23.156Z,2.80
2019-03-19T13:52:51.790Z,3.12
2019-03-19T13:55:26.172Z,3.05
2019-03-19T13:57:54.736Z,3.33
2019-03-19T14:00:23.258Z,3.27
2019-03-19T14:02:51.812Z,2.80
2019-03-19T14:05:20.505Z,2.98
2019-03-19T14:07:49.169Z,3.08
2019-03-19T14:10:18.853Z,2.80
2019-03-19T14:12:48.236Z,2.83
2019-03-19T14:15:21.359Z,2.62
2019-03-19T14:17:49.860Z,2.87
2019-03-19T14:20:18.510Z,2.92
2019-03-19T14:22:47.219Z,2.87
2019-03-19T14:25:16.632Z,2.83
2019-03-19T14:27:45.364Z,3.20
2019-03-19T14:30:23.767Z,3.08
2019-03-19T14:32:52.428Z,2.77
2019-03-19T14:35:20.988Z,2.70
2019-03-19T14:37:49.610Z,2.65
2019-03-19T14:40:22.278Z,2.60
2019-03-19T14:42:50.898Z,2.80
2019-03-19T14:45:19.538Z,2.80
2019-03-19T14:47:48.364Z,2.50
2019-03-19T14:50:21.832Z,1.90
2019-03-19T14:52:50.476Z,2.00
2019-03-19T14:55:19.202Z,1.70
2019-03-19T14:57:47.750Z,2.35
2019-03-19T15:00:22.809Z,1.98
2019-03-19T15:02:51.429Z,2.17
2019-03-19T15:05:20.125Z,1.92
2019-03-19T15:07:48.730Z,2.10
2019-03-19T15:10:21.295Z,1.75
2019-03-19T15:12:49.853Z,1.90
2019-03-19T15:15:22.215Z,1.52
2019-03-19T15:17:50.863Z,2.12
2019-03-19T15:20:26.945Z,1.62
2019-03-19T15:22:55.434Z,1.60
2019-03-19T15:25:24.066Z,2.05
2019-03-19T15:27:53.106Z,1.70
2019-03-19T15:30:21.798Z,2.02
2019-03-19T15:32:50.423Z,2.00
2019-03-19T15:35:19.209Z,1.77
2019-03-19T15:37:47.899Z,1.90
2019-03-19T15:40:17.638Z,2.20
2019-03-19T15:42:46.301Z,2.45
2019-03-19T15:45:26.489Z,2.20
2019-03-19T15:47:55.073Z,2.40
2019-03-19T15:50:23.698Z,2.40
2019-03-19T15:52:52.330Z,2.20
2019-03-19T15:55:20.915Z,1.90
2019-03-19T15:57:49.610Z,1.75
2019-03-19T16:00:21.631Z,2.20
2019-03-19T16:02:50.268Z,1.98
2019-03-19T16:05:18.893Z,1.85
2019-03-19T16:07:47.606Z,2.10
2019-03-19T16:10:16.759Z,2.00
2019-03-19T16:12:45.395Z,2.08
2019-03-19T16:15:18.044Z,2.05
2019-03-19T16:17:46.704Z,2.47
2019-03-19T16:20:17.361Z,1.85
2019-03-19T16:22:45.947Z,2.10
2019-03-19T16:25:14.646Z,2.15
2019-03-19T16:27:43.281Z,1.75
2019-03-19T16:30:21.845Z,1.70
2019-03-19T16:32:50.415Z,1.95
2019-03-19T16:35:19.066Z,2.08
2019-03-19T16:37:47.754Z,2.70
2019-03-19T16:40:21.820Z,2.17
2019-03-19T16:42:50.558Z,2.20
2019-03-19T16:45:19.268Z,2.20
2019-03-19T16:47:47.902Z,1.52
2019-03-19T16:50:20.322Z,1.70
2019-03-19T16:52:49.184Z,1.80
2019-03-19T16:55:18.901Z,1.77
2019-03-19T16:57:47.491Z,2.27
2019-03-19T17:00:23.368Z,1.80
2019-03-19T17:02:52.048Z,2.00
2019-03-19T17:05:21.438Z,1.60
2019-03-19T17:07:50.087Z,2.17
2019-03-19T17:10:24.180Z,2.40
2019-03-19T17:12:52.753Z,2.25
2019-03-19T17:15:21.379Z,1.72
2019-03-19T17:17:50.110Z,1.95
2019-03-19T17:20:19.243Z,1.92
2019-03-19T17:22:48.108Z,2.17
2019-03-19T17:25:21.225Z,1.67
2019-03-19T17:27:49.850Z,2.20
2019-03-19T17:30:26.319Z,1.72
2019-03-19T17:32:54.973Z,2.20
2019-03-19T17:35:23.693Z,2.25
2019-03-19T17:37:52.261Z,2.42
2019-03-19T17:40:20.879Z,2.35
2019-03-19T17:42:49.541Z,2.55
2019-03-19T17:45:18.242Z,2.67
2019-03-19T17:47:46.971Z,2.47
2019-03-19T17:50:20.060Z,2.65
2019-03-19T17:52:50.800Z,2.98
2019-03-19T17:55:19.429Z,2.63
2019-03-19T17:57:48.133Z,2.45
2019-03-19T18:00:36.952Z,2.27
2019-03-19T18:03:05.574Z,3.17
2019-03-19T18:05:34.341Z,2.27
2019-03-19T18:08:03.064Z,2.75
2019-03-19T18:10:31.714Z,2.45
2019-03-19T18:13:00.299Z,2.58
2019-03-19T18:15:28.868Z,2.77
2019-03-19T18:17:57.421Z,2.83
2019-03-19T18:20:25.998Z,2.72
2019-03-19T18:22:54.560Z,2.42
2019-03-19T18:25:23.211Z,2.90
2019-03-19T18:27:51.845Z,2.87
2019-03-19T18:30:22.497Z,2.77
2019-03-19T18:32:51.135Z,2.40
2019-03-19T18:35:19.965Z,2.27
2019-03-19T18:37:48.728Z,3.15
2019-03-19T18:40:18.145Z,3.42
2019-03-19T18:42:47.119Z,3.40
2019-03-19T18:45:17.758Z,3.42
2019-03-19T18:47:46.378Z,3.10
2019-03-19T18:50:22.730Z,2.90
2019-03-19T18:52:51.308Z,2.83
2019-03-19T18:55:19.967Z,2.77
2019-03-19T18:57:48.526Z,3.20
2019-03-19T19:00:21.165Z,2.30
2019-03-19T19:02:51.018Z,2.80
2019-03-19T19:05:22.929Z,2.72
2019-03-19T19:07:51.587Z,2.52
2019-03-19T19:10:21.363Z,2.62
2019-03-19T19:12:50.291Z,1.98
2019-03-19T19:15:25.343Z,1.95
2019-03-19T19:17:53.960Z,2.08
2019-03-19T19:20:22.657Z,2.20
2019-03-19T19:22:51.257Z,2.90
2019-03-19T19:25:26.680Z,1.85
2019-03-19T19:27:55.464Z,2.27
2019-03-19T19:30:31.734Z,2.05
2019-03-19T19:33:02.506Z,2.22
2019-03-19T19:35:30.632Z,2.25
2019-03-19T19:37:59.316Z,2.80
2019-03-19T19:40:27.972Z,2.47
2019-03-19T19:42:56.745Z,3.00
2019-03-19T19:45:25.450Z,2.92
2019-03-19T19:47:54.115Z,3.15
2019-03-19T19:50:23.712Z,3.77
2019-03-19T19:52:52.308Z,3.40
2019-03-19T19:55:20.874Z,3.50
2019-03-19T19:57:49.508Z,3.30
2019-03-19T20:00:21.815Z,3.50
2019-03-19T20:02:50.565Z,3.25
2019-03-19T20:05:19.293Z,3.50
2019-03-19T20:07:48.001Z,3.42
2019-03-19T20:10:21.297Z,3.42
2019-03-19T20:12:49.976Z,3.87
2019-03-19T20:15:18.636Z,3.00
2019-03-19T20:17:47.267Z,3.27
2019-03-19T20:20:21.195Z,3.47
2019-03-19T20:22:49.840Z,3.67
2019-03-19T20:25:18.402Z,3.33
2019-03-19T20:27:47.159Z,3.27
2019-03-19T20:30:20.633Z,3.05
2019-03-19T20:32:49.328Z,3.35
2019-03-19T20:35:18.133Z,2.92
2019-03-19T20:37:46.825Z,3.85
2019-03-19T20:40:16.441Z,3.77
2019-03-19T20:42:45.152Z,3.00
2019-03-19T20:45:21.441Z,2.83
2019-03-19T20:47:50.060Z,3.25
2019-03-19T20:50:29.056Z,3.77
2019-03-19T20:52:57.688Z,3.42
2019-03-19T20:55:26.388Z,4.08
2019-03-19T20:57:55.039Z,4.40
2019-03-19T21:00:23.795Z,4.97
2019-03-19T21:02:52.445Z,4.87
2019-03-19T21:05:20.990Z,4.35
2019-03-19T21:07:49.562Z,4.75
2019-03-19T21:10:19.868Z,4.50
2019-03-19T21:12:48.672Z,5.12
2019-03-19T21:15:30.093Z,5.90
2019-03-19T21:17:58.967Z,5.22
2019-03-19T21:20:27.730Z,4.90
2019-03-19T21:22:56.449Z,5.30
2019-03-19T21:25:25.213Z,5.08
2019-03-19T21:27:54.097Z,4.62
2019-03-19T21:30:23.841Z,4.47
2019-03-19T21:32:52.534Z,4.95
2019-03-19T21:35:22.426Z,5.37
2019-03-19T21:37:51.378Z,5.42
2019-03-19T21:40:20.404Z,5.47
2019-03-19T21:42:49.193Z,4.62
2019-03-19T21:45:20.750Z,4.62
2019-03-19T21:50:19.829Z,4.50
2019-03-19T21:52:48.815Z,4.12
2019-03-19T21:55:17.728Z,4.95
2019-03-19T21:57:46.418Z,6.20
2019-03-19T22:00:21.956Z,3.90
2019-03-19T22:02:50.724Z,4.62
2019-03-19T22:05:19.553Z,3.98
2019-03-19T22:07:48.753Z,5.37
2019-03-19T22:10:19.777Z,6.60
2019-03-19T22:12:49.477Z,5.33
2019-03-19T22:15:20.726Z,5.15
2019-03-19T22:17:49.430Z,4.40
2019-03-19T22:20:18.569Z,4.87
2019-03-19T22:22:47.501Z,4.83
2019-03-19T22:25:16.627Z,5.10
2019-03-19T22:27:45.484Z,4.22
2019-03-19T22:30:20.728Z,6.05
2019-03-19T22:32:49.444Z,6.50
2019-03-19T22:35:18.216Z,5.78
2019-03-19T22:37:47.015Z,3.98
2019-03-19T22:40:16.800Z,4.67
2019-03-19T22:42:45.756Z,5.00
2019-03-19T22:45:18.411Z,5.47
2019-03-19T22:47:47.360Z,4.92
2019-03-19T22:50:17.303Z,5.22
2019-03-19T22:52:46.214Z,6.97
2019-03-19T22:55:15.978Z,6.00
2019-03-19T22:57:45.011Z,6.55
2019-03-19T23:00:17.958Z,6.50
2019-03-19T23:02:46.747Z,5.90
2019-03-19T23:05:15.640Z,6.33
2019-03-19T23:07:44.313Z,6.12
2019-03-19T23:10:13.542Z,6.15
2019-03-19T23:12:42.540Z,6.33
2019-03-19T23:15:12.364Z,5.87
2019-03-19T23:17:42.128Z,6.40
2019-03-19T23:20:12.623Z,6.62
2019-03-19T23:22:41.453Z,5.60
2019-03-19T23:25:10.577Z,6.28
2019-03-19T23:27:39.373Z,5.70
2019-03-19T23:30:13.157Z,6.17
2019-03-19T23:32:41.803Z,4.83
2019-03-19T23:35:10.824Z,5.28
2019-03-19T23:37:41.042Z,5.30
2019-03-19T23:40:11.905Z,5.28
2019-03-19T23:42:40.458Z,5.37
2019-03-19T23:45:11.022Z,5.50
2019-03-19T23:47:39.585Z,5.53
2019-03-19T23:50:13.266Z,5.40
2019-03-19T23:52:41.825Z,5.70
2019-03-19T23:55:10.955Z,5.53
2019-03-19T23:57:39.699Z,6.70
